Time;durP1;ratioP1;P1;durP2;ratioP2;P2;SDS_P1;SDS_P2;PMS_P1;PMS_P2;Temp;Humidity;BMP_temperature;BMP_pressure;BME280_temperature;BME280_humidity;BME280_pressure;Samples;Min_cycle;Max_cycle;Signal;HPM_P1;HPM_P2
2022/06/01 00:01:49;;;;;;;3.50;2.47;;;15.50;99.90;;;;;;4964948;28;20511;-70
2022/06/01 00:04:16;;;;;;;2.60;2.30;;;15.40;99.90;;;;;;4965188;28;20424;-71
2022/06/01 00:06:42;;;;;;;2.30;2.10;;;15.20;99.90;;;;;;4964924;28;20424;-71
2022/06/01 00:09:07;;;;;;;3.00;2.50;;;15.20;99.90;;;;;;4964888;28;20425;-71
2022/06/01 00:11:33;;;;;;;3.27;2.97;;;15.40;99.90;;;;;;4964633;28;20212;-71
2022/06/01 00:13:59;;;;;;;4.53;2.90;;;15.50;99.90;;;;;;4965355;28;20278;-70
2022/06/01 00:16:25;;;;;;;3.57;3.03;;;15.50;99.90;;;;;;4964941;28;20657;-71
2022/06/01 00:18:50;;;;;;;3.20;2.90;;;15.40;99.90;;;;;;4964936;28;20196;-70
2022/06/01 00:21:16;;;;;;;4.30;3.23;;;15.30;99.90;;;;;;4963468;28;20216;-71
2022/06/01 00:23:42;;;;;;;3.10;2.80;;;15.20;99.90;;;;;;4964918;28;20188;-72
2022/06/01 00:26:07;;;;;;;5.30;2.73;;;15.10;99.90;;;;;;4965299;28;20189;-71
2022/06/01 00:28:34;;;;;;;4.10;2.60;;;15.00;99.90;;;;;;4964625;28;20629;-70
2022/06/01 00:30:59;;;;;;;3.23;2.50;;;14.90;99.90;;;;;;4964768;28;20208;-71
2022/06/01 00:33:25;;;;;;;3.13;2.77;;;15.00;99.90;;;;;;4964971;28;20798;-70
2022/06/01 00:35:51;;;;;;;3.00;2.70;;;15.20;99.90;;;;;;4964822;28;20682;-72
2022/06/01 00:38:16;;;;;;;2.50;2.27;;;15.40;99.90;;;;;;4964511;28;21344;-71
2022/06/01 00:40:42;;;;;;;3.73;2.70;;;15.40;99.90;;;;;;4965917;28;20218;-71
2022/06/01 00:43:20;;;;;;;2.60;2.40;;;15.40;99.90;;;;;;4968059;28;20245;-71
2022/06/01 00:45:46;;;;;;;4.27;2.80;;;15.40;99.90;;;;;;4968479;28;20432;-71
2022/06/01 00:48:13;;;;;;;3.53;2.87;;;15.30;99.90;;;;;;4968363;28;20432;-71
2022/06/01 00:50:41;;;;;;;2.70;2.50;;;15.10;99.90;;;;;;4968378;28;20482;-71
2022/06/01 00:53:19;;;;;;;3.33;3.03;;;15.00;99.90;;;;;;4968042;28;20485;-70
2022/06/01 00:55:59;;;;;;;2.40;2.20;;;15.00;99.90;;;;;;4968237;28;20424;-70
2022/06/01 00:58:33;;;;;;;3.00;2.80;;;14.70;99.90;;;;;;4967867;28;20845;-71
2022/06/01 01:00:59;;;;;;;4.57;2.47;;;14.70;99.90;;;;;;4968047;28;20489;-71
2022/06/01 01:03:29;;;;;;;4.60;2.63;;;14.80;99.90;;;;;;4968080;28;20462;-71
2022/06/01 01:06:20;;;;;;;2.83;2.43;;;14.80;99.90;;;;;;4967979;28;20170;-71
2022/06/01 01:08:47;;;;;;;3.13;2.83;;;14.90;99.90;;;;;;4967865;28;20832;-71
2022/06/01 01:11:14;;;;;;;4.97;3.23;;;14.90;99.90;;;;;;4967746;28;20429;-70
2022/06/01 01:13:45;;;;;;;2.90;2.70;;;14.90;99.90;;;;;;4967187;28;20983;-72
2022/06/01 01:16:11;;;;;;;4.40;2.73;;;15.00;99.90;;;;;;4967567;28;21555;-72
2022/06/01 01:18:40;;;;;;;2.83;2.63;;;14.90;99.90;;;;;;4968027;28;20422;-71
2022/06/01 01:21:09;;;;;;;4.47;3.50;;;14.80;99.90;;;;;;4967661;28;20976;-71
2022/06/01 01:23:57;;;;;;;3.07;2.87;;;14.60;99.90;;;;;;4967740;28;20427;-70
2022/06/01 01:26:25;;;;;;;2.37;2.17;;;14.70;99.90;;;;;;4967583;28;20506;-71
2022/06/01 01:28:52;;;;;;;3.73;2.87;;;14.80;99.90;;;;;;4967329;28;20435;-70
2022/06/01 01:31:21;;;;;;;3.10;2.90;;;15.00;99.90;;;;;;4967632;28;20435;-71
2022/06/01 01:33:48;;;;;;;3.70;2.73;;;15.10;99.90;;;;;;4967704;28;20452;-71
2022/06/01 01:36:15;;;;;;;3.37;2.77;;;15.10;99.90;;;;;;4967526;28;20423;-71
2022/06/01 01:38:48;;;;;;;3.30;3.00;;;15.10;99.90;;;;;;4967537;28;20431;-71
2022/06/01 01:41:31;;;;;;;3.90;3.20;;;15.20;99.90;;;;;;4966249;28;20826;-71
2022/06/01 01:44:18;;;;;;;2.87;2.47;;;15.10;99.90;;;;;;4967399;28;20425;-71
2022/06/01 01:46:47;;;;;;;3.87;2.93;;;15.20;99.90;;;;;;4967383;28;20450;-71
2022/06/01 01:49:14;;;;;;;2.67;2.47;;;15.10;99.90;;;;;;4966998;28;20467;-71
2022/06/01 01:51:40;;;;;;;3.33;2.50;;;15.10;99.90;;;;;;4967513;28;21461;-71
2022/06/01 01:54:34;;;;;;;3.63;2.63;;;15.10;99.90;;;;;;4967199;28;20537;-71
2022/06/01 01:57:18;;;;;;;3.73;2.87;;;15.00;99.90;;;;;;4966546;28;20669;-71
2022/06/01 02:00:01;;;;;;;3.20;2.90;;;14.90;99.90;;;;;;4967209;28;20439;-71
2022/06/01 02:02:44;;;;;;;2.77;2.53;;;14.70;99.90;;;;;;4967113;28;20454;-71
2022/06/01 02:08:48;;;;;;;3.17;2.53;;;14.60;99.90;;;;;;4966654;28;20771;-71
2022/06/01 02:14:09;;;;;;;3.10;2.90;;;14.50;99.90;;;;;;4966708;28;20906;-71
2022/06/01 02:16:49;;;;;;;3.40;3.10;;;14.50;99.90;;;;;;4965508;28;20433;-72
2022/06/01 02:19:23;;;;;;;2.77;2.50;;;14.50;99.90;;;;;;4966602;28;20447;-71
2022/06/01 02:21:54;;;;;;;3.27;2.67;;;14.40;99.90;;;;;;4966722;28;20465;-70
2022/06/01 02:24:22;;;;;;;14.93;3.53;;;14.30;99.90;;;;;;4966445;28;20469;-71
2022/06/01 02:26:49;;;;;;;3.37;3.13;;;14.30;99.90;;;;;;4966310;28;20444;-72
2022/06/01 02:29:22;;;;;;;3.67;3.37;;;14.20;99.90;;;;;;4965087;28;20498;-71
2022/06/01 02:31:50;;;;;;;3.20;2.90;;;14.20;99.90;;;;;;4966476;28;20500;-71
2022/06/01 02:34:17;;;;;;;3.07;2.70;;;14.20;99.90;;;;;;4966408;28;20446;-71
2022/06/01 02:36:44;;;;;;;3.53;3.23;;;14.20;99.90;;;;;;4966341;28;20842;-71
2022/06/01 02:39:12;;;;;;;3.20;2.90;;;14.20;99.90;;;;;;4965898;28;20421;-71
2022/06/01 02:44:22;;;;;;;3.63;3.33;;;14.20;99.90;;;;;;4966348;28;20419;-71
2022/06/01 02:46:47;;;;;;;3.60;3.30;;;14.20;99.90;;;;;;4966458;28;20421;-72
2022/06/01 02:49:13;;;;;;;3.47;3.17;;;14.00;99.90;;;;;;4965747;28;20217;-72
2022/06/01 02:51:39;;;;;;;3.67;3.03;;;14.00;99.90;;;;;;4966279;28;20180;-72
2022/06/01 02:54:05;;;;;;;3.60;3.30;;;13.90;99.90;;;;;;4965764;28;20237;-71
2022/06/01 02:56:30;;;;;;;3.20;3.00;;;13.90;99.90;;;;;;4965785;28;20430;-71
2022/06/01 02:58:56;;;;;;;3.90;3.60;;;13.80;99.90;;;;;;4965532;28;20197;-71
2022/06/01 03:01:22;;;;;;;4.40;4.00;;;13.80;99.90;;;;;;4966021;28;20205;-71
2022/06/01 03:03:48;;;;;;;4.10;3.30;;;13.80;99.90;;;;;;4965305;28;20188;-72
2022/06/01 03:06:14;;;;;;;3.77;3.37;;;13.80;99.90;;;;;;4964654;28;20434;-71
2022/06/01 03:08:40;;;;;;;3.20;3.00;;;13.90;99.90;;;;;;4965893;28;20188;-72
2022/06/01 03:11:07;;;;;;;3.60;3.30;;;13.80;99.90;;;;;;4964185;28;20814;-71
2022/06/01 03:13:32;;;;;;;3.77;3.10;;;13.80;99.90;;;;;;4965409;28;20186;-71
2022/06/01 03:15:58;;;;;;;5.13;3.17;;;13.80;99.90;;;;;;4965276;28;20428;-72
2022/06/01 03:18:24;;;;;;;3.00;2.80;;;13.80;99.90;;;;;;4965346;28;20210;-71
2022/06/01 03:20:50;;;;;;;4.70;3.27;;;13.80;99.90;;;;;;4965796;28;20463;-71
2022/06/01 03:23:16;;;;;;;3.70;3.40;;;13.80;99.90;;;;;;4965449;28;20493;-70
2022/06/01 03:25:42;;;;;;;4.03;3.63;;;13.80;99.90;;;;;;4965637;28;20184;-71
2022/06/01 03:28:08;;;;;;;3.40;3.10;;;13.80;99.90;;;;;;4964374;28;20812;-71
2022/06/01 03:30:34;;;;;;;3.90;3.47;;;13.80;99.90;;;;;;4965611;28;20204;-70
2022/06/01 03:33:00;;;;;;;4.10;3.50;;;13.80;99.90;;;;;;4965520;28;20423;-72
2022/06/01 03:35:28;;;;;;;3.63;3.33;;;13.70;99.90;;;;;;4964920;28;20471;-71
2022/06/01 03:37:54;;;;;;;3.93;3.53;;;13.80;99.90;;;;;;4965563;28;20412;-72
2022/06/01 03:40:22;;;;;;;3.87;3.47;;;13.70;99.90;;;;;;4965156;28;20497;-71
2022/06/01 03:42:48;;;;;;;3.90;3.60;;;13.70;99.90;;;;;;4965429;28;20526;-71
2022/06/01 03:47:58;;;;;;;3.87;3.50;;;13.50;99.90;;;;;;4965490;28;20481;-71
2022/06/01 03:50:25;;;;;;;4.00;3.77;;;13.50;99.90;;;;;;4965034;28;20556;-72
2022/06/01 03:52:52;;;;;;;4.00;3.70;;;13.50;99.90;;;;;;4965385;28;20182;-72
2022/06/01 03:55:18;;;;;;;4.57;3.33;;;13.60;99.90;;;;;;4965194;28;20983;-70
2022/06/01 03:57:44;;;;;;;3.50;3.30;;;13.60;99.90;;;;;;4965312;28;20437;-71
2022/06/01 04:00:21;;;;;;;6.80;3.90;;;13.60;99.90;;;;;;4965068;28;20933;-70
2022/06/01 04:02:47;;;;;;;3.90;3.60;;;13.50;99.90;;;;;;4965201;28;20418;-70
2022/06/01 04:05:13;;;;;;;4.30;3.90;;;13.50;99.90;;;;;;4964365;28;20414;-72
2022/06/01 04:07:38;;;;;;;3.70;3.40;;;13.50;99.90;;;;;;4963771;28;20472;-71
2022/06/01 04:10:05;;;;;;;3.57;3.27;;;13.60;99.90;;;;;;4965268;28;20217;-71
2022/06/01 04:12:30;;;;;;;3.23;3.03;;;13.70;99.90;;;;;;4964970;28;20677;-70
2022/06/01 04:14:56;;;;;;;3.70;3.37;;;13.80;99.90;;;;;;4966796;28;20418;-71
2022/06/01 04:17:22;;;;;;;3.67;3.37;;;13.70;99.90;;;;;;4968697;28;20240;-72
2022/06/01 04:19:47;;;;;;;4.57;3.00;;;13.80;99.90;;;;;;4968574;28;20217;-72
2022/06/01 04:22:14;;;;;;;3.37;3.17;;;13.80;99.90;;;;;;4969127;28;20206;-71
2022/06/01 04:24:40;;;;;;;3.03;2.83;;;13.90;99.90;;;;;;4968547;28;20185;-69
2022/06/01 04:27:07;;;;;;;4.77;3.50;;;14.00;99.90;;;;;;4968669;28;20415;-72
2022/06/01 04:29:33;;;;;;;3.70;3.43;;;14.10;99.90;;;;;;4968499;28;20850;-72
2022/06/01 04:32:03;;;;;;;4.20;3.80;;;14.20;99.90;;;;;;4968711;28;20489;-72
2022/06/01 04:34:29;;;;;;;4.20;3.83;;;14.20;99.90;;;;;;4968639;28;20179;-71
2022/06/01 04:36:54;;;;;;;4.40;3.80;;;14.30;99.90;;;;;;4969020;28;20510;-71
2022/06/01 04:39:23;;;;;;;4.00;3.60;;;14.40;99.90;;;;;;4968437;28;21100;-71
2022/06/01 04:41:49;;;;;;;4.40;4.00;;;14.50;99.90;;;;;;4968424;28;20207;-71
2022/06/01 04:44:15;;;;;;;4.20;3.80;;;14.50;99.90;;;;;;4968400;28;20429;-72
2022/06/01 04:46:40;;;;;;;4.43;3.80;;;14.60;99.90;;;;;;4968398;28;20186;-71
2022/06/01 04:49:07;;;;;;;5.23;3.80;;;14.60;99.90;;;;;;4968380;28;20552;-71
2022/06/01 04:51:33;;;;;;;5.53;4.60;;;14.60;99.90;;;;;;4967650;28;20188;-71
2022/06/01 04:53:59;;;;;;;4.00;3.70;;;14.50;99.90;;;;;;4967421;28;20440;-71
2022/06/01 04:56:25;;;;;;;4.67;4.27;;;14.60;99.90;;;;;;4967543;28;20781;-71
2022/06/01 04:58:50;;;;;;;4.07;3.77;;;14.60;99.90;;;;;;4968130;28;20219;-72
2022/06/01 05:01:16;;;;;;;5.17;3.70;;;14.80;99.90;;;;;;4967723;28;20210;-71
2022/06/01 05:03:41;;;;;;;3.87;3.57;;;14.70;99.90;;;;;;4967996;28;20630;-72
2022/06/01 05:06:07;;;;;;;5.97;4.00;;;14.90;99.90;;;;;;4968022;28;20178;-71
2022/06/01 05:08:33;;;;;;;4.63;3.57;;;15.00;99.90;;;;;;4967792;28;20189;-70
2022/06/01 05:10:58;;;;;;;4.43;4.03;;;15.20;99.90;;;;;;4966523;28;20677;-71
2022/06/01 05:13:24;;;;;;;4.23;3.80;;;15.30;99.90;;;;;;4966359;28;20194;-71
2022/06/01 05:15:56;;;;;;;5.17;3.83;;;15.40;99.90;;;;;;4966526;28;20192;-71
2022/06/01 05:18:23;;;;;;;5.57;4.30;;;15.50;99.90;;;;;;4967976;28;20687;-72
2022/06/01 05:20:49;;;;;;;4.20;3.30;;;15.70;99.90;;;;;;4967581;28;20490;-72
2022/06/01 05:23:18;;;;;;;4.00;3.60;;;15.80;99.90;;;;;;4967262;28;20416;-69
2022/06/01 05:25:46;;;;;;;6.93;5.20;;;16.00;99.90;;;;;;4967566;28;20502;-70
2022/06/01 05:28:12;;;;;;;6.10;3.83;;;16.00;99.90;;;;;;4968258;28;20406;-70
2022/06/01 05:30:38;;;;;;;4.93;4.43;;;15.90;99.90;;;;;;4967291;28;20433;-70
2022/06/01 05:33:04;;;;;;;5.23;4.20;;;16.00;99.90;;;;;;4967550;28;20417;-70
2022/06/01 05:35:30;;;;;;;7.53;3.47;;;16.30;99.90;;;;;;4967308;28;20211;-71
2022/06/01 05:37:55;;;;;;;4.30;3.73;;;16.50;99.90;;;;;;4967044;28;20423;-70
2022/06/01 05:40:21;;;;;;;4.67;3.47;;;16.50;99.90;;;;;;4967299;28;20216;-69
2022/06/01 05:42:47;;;;;;;3.63;3.33;;;16.80;99.90;;;;;;4966982;28;20217;-70
2022/06/01 05:45:13;;;;;;;3.90;3.60;;;16.90;99.90;;;;;;4967307;28;20410;-70
2022/06/01 05:47:39;;;;;;;4.03;3.67;;;16.70;99.90;;;;;;4967256;28;20177;-69
2022/06/01 05:50:05;;;;;;;4.07;3.50;;;16.70;99.90;;;;;;4967028;28;20530;-71
2022/06/01 05:52:31;;;;;;;4.37;3.43;;;16.80;99.90;;;;;;4967322;28;20185;-70
2022/06/01 05:54:57;;;;;;;4.20;3.27;;;17.10;99.90;;;;;;4966942;28;20424;-71
2022/06/01 05:57:22;;;;;;;10.20;8.23;;;17.40;99.90;;;;;;4965719;28;20186;-70
2022/06/01 05:59:48;;;;;;;4.20;3.03;;;17.50;99.90;;;;;;4966949;28;20201;-69
2022/06/01 06:02:14;;;;;;;3.50;3.17;;;17.50;99.90;;;;;;4965002;28;20709;-71
2022/06/01 06:04:39;;;;;;;3.00;2.80;;;17.80;99.90;;;;;;4966715;28;20188;-71
2022/06/01 06:07:05;;;;;;;4.67;3.60;;;17.90;99.90;;;;;;4966882;28;20181;-71
2022/06/01 06:09:31;;;;;;;8.80;3.30;;;17.90;99.90;;;;;;4965406;28;20314;-71
2022/06/01 06:11:56;;;;;;;3.50;3.20;;;17.90;99.90;;;;;;4966928;28;20421;-71
2022/06/01 06:14:22;;;;;;;4.27;3.20;;;18.00;99.90;;;;;;4966163;28;20185;-72
2022/06/01 06:16:48;;;;;;;3.27;2.70;;;18.00;99.90;;;;;;4966948;28;20178;-72
2022/06/01 06:19:16;;;;;;;3.40;3.10;;;18.00;99.90;;;;;;4966832;28;20243;-71
2022/06/01 06:21:42;;;;;;;3.10;2.77;;;18.20;99.90;;;;;;4966700;28;20594;-70
2022/06/01 06:24:12;;;;;;;2.70;2.50;;;18.10;99.90;;;;;;4965627;28;20436;-71
2022/06/01 06:26:40;;;;;;;3.90;2.90;;;18.20;99.90;;;;;;4966662;28;20412;-72
2022/06/01 06:29:08;;;;;;;4.80;2.70;;;18.30;99.90;;;;;;4965582;28;20547;-72
2022/06/01 06:31:35;;;;;;;3.57;3.27;;;18.40;99.90;;;;;;4966370;28;20417;-71
2022/06/01 06:34:00;;;;;;;3.83;2.63;;;18.60;99.90;;;;;;4966450;28;20432;-71
2022/06/01 06:36:26;;;;;;;4.70;3.43;;;18.70;99.90;;;;;;4965694;28;20417;-71
2022/06/01 06:38:52;;;;;;;3.40;3.03;;;18.70;99.90;;;;;;4965566;28;20594;-71
2022/06/01 06:41:17;;;;;;;4.63;2.80;;;18.60;99.90;;;;;;4966180;28;20209;-71
2022/06/01 06:43:43;;;;;;;3.60;3.10;;;18.70;99.90;;;;;;4966080;28;20173;-70
2022/06/01 06:46:14;;;;;;;2.57;2.37;;;18.90;99.90;;;;;;4966511;28;20209;-71
2022/06/01 06:48:42;;;;;;;4.03;2.63;;;19.00;99.90;;;;;;4966379;28;20197;-71
2022/06/01 06:51:08;;;;;;;3.20;2.57;;;19.10;99.90;;;;;;4965960;28;20522;-72
2022/06/01 06:53:34;;;;;;;4.50;3.10;;;19.30;99.90;;;;;;4966118;28;20429;-71
2022/06/01 06:56:01;;;;;;;3.60;2.93;;;19.40;99.90;;;;;;4965777;28;20475;-71
2022/06/01 06:58:27;;;;;;;3.13;2.80;;;19.40;99.90;;;;;;4965793;28;20196;-70
2022/06/01 07:00:53;;;;;;;3.80;3.00;;;19.20;99.90;;;;;;4964913;28;20468;-71
2022/06/01 07:03:18;;;;;;;3.20;2.77;;;19.20;99.90;;;;;;4965351;28;21474;-71
2022/06/01 07:08:29;;;;;;;2.80;2.60;;;19.30;99.90;;;;;;4965844;28;20176;-72
2022/06/01 07:10:57;;;;;;;3.57;2.90;;;19.40;99.90;;;;;;4965516;28;21438;-71
2022/06/01 07:13:23;;;;;;;6.03;2.57;;;19.50;99.90;;;;;;4965825;28;20973;-70
2022/06/01 07:15:58;;;;;;;4.17;3.00;;;19.70;99.90;;;;;;4965446;28;20791;-71
2022/06/01 07:18:24;;;;;;;3.77;2.90;;;19.70;99.90;;;;;;4965366;28;20951;-70
2022/06/01 07:20:50;;;;;;;3.20;2.70;;;19.90;99.90;;;;;;4965584;28;20468;-71
2022/06/01 07:23:15;;;;;;;3.07;2.87;;;20.00;99.90;;;;;;4965158;28;20551;-70
2022/06/01 07:25:41;;;;;;;3.20;2.60;;;19.90;99.90;;;;;;4965584;28;20182;-73
2022/06/01 07:28:08;;;;;;;5.70;2.40;;;20.00;99.90;;;;;;4962762;28;20205;-73
2022/06/01 07:30:34;;;;;;;3.57;2.57;;;19.80;99.90;;;;;;4964526;28;20193;-73
2022/06/01 07:32:59;;;;;;;4.10;2.60;;;19.80;99.90;;;;;;4965560;28;20829;-72
2022/06/01 07:35:25;;;;;;;3.07;2.37;;;20.00;99.90;;;;;;4965483;28;20769;-72
2022/06/01 07:43:21;;;;;;;3.60;2.60;;;20.40;99.90;;;;;;4965433;28;21141;-71
2022/06/01 07:45:48;;;;;;;4.33;2.47;;;20.60;99.90;;;;;;4965020;28;20444;-72
2022/06/01 07:48:16;;;;;;;4.47;2.50;;;20.70;99.90;;;;;;4965048;28;20950;-71
2022/06/01 07:50:42;;;;;;;3.23;2.37;;;20.70;99.40;;;;;;4963591;28;20456;-70
2022/06/01 07:53:09;;;;;;;3.10;2.40;;;20.70;99.10;;;;;;4964677;28;20527;-71
2022/06/01 07:55:36;;;;;;;3.20;2.40;;;20.80;98.70;;;;;;4965133;28;20945;-71
2022/06/01 07:58:02;;;;;;;2.90;2.27;;;20.80;97.40;;;;;;4964709;28;20421;-71
2022/06/01 08:00:28;;;;;;;3.43;2.30;;;20.90;97.60;;;;;;4964758;28;20444;-71
2022/06/01 08:02:54;;;;;;;3.47;2.13;;;20.90;97.40;;;;;;4965377;28;20428;-70
2022/06/01 08:05:21;;;;;;;2.93;2.20;;;21.00;97.00;;;;;;4964772;28;20428;-71
2022/06/01 08:07:47;;;;;;;2.87;2.50;;;20.90;97.00;;;;;;4964996;28;20243;-72
2022/06/01 08:10:15;;;;;;;2.47;2.10;;;20.90;97.40;;;;;;4964820;28;20440;-71
2022/06/01 08:15:27;;;;;;;3.33;2.23;;;21.10;97.00;;;;;;4964247;28;20396;-72
2022/06/01 08:17:57;;;;;;;4.30;2.50;;;21.30;97.10;;;;;;4965064;28;20420;-71
2022/06/01 08:20:24;;;;;;;4.13;2.20;;;21.30;97.90;;;;;;4965209;28;20456;-74
2022/06/01 08:22:51;;;;;;;3.03;2.20;;;21.30;95.90;;;;;;4964188;28;20467;-72
2022/06/01 08:25:18;;;;;;;3.10;2.50;;;21.20;96.00;;;;;;4965036;28;20424;-71
2022/06/01 08:27:45;;;;;;;2.10;2.00;;;21.50;95.60;;;;;;4964969;28;20417;-72
2022/06/01 08:30:13;;;;;;;2.20;1.70;;;21.50;94.50;;;;;;4964542;28;20523;-72
2022/06/01 08:32:39;;;;;;;2.53;2.00;;;21.60;91.70;;;;;;4964825;28;20416;-72
2022/06/01 08:35:06;;;;;;;2.67;1.93;;;21.60;91.00;;;;;;4964849;28;20424;-73
2022/06/01 08:37:32;;;;;;;1.60;1.43;;;21.50;89.60;;;;;;4964752;28;20436;-73
2022/06/01 08:39:58;;;;;;;2.20;2.00;;;21.60;88.40;;;;;;4964751;28;20518;-71
2022/06/01 08:42:24;;;;;;;2.43;2.00;;;21.80;90.00;;;;;;4964878;28;20260;-73
2022/06/01 08:44:51;;;;;;;2.43;1.73;;;21.80;88.20;;;;;;4965077;28;20201;-73
2022/06/01 08:47:27;;;;;;;2.10;2.00;;;21.90;87.60;;;;;;4965293;28;20419;-71
2022/06/01 08:49:57;;;;;;;1.67;1.53;;;22.30;86.50;;;;;;4964596;28;20468;-73
2022/06/01 08:52:24;;;;;;;1.80;1.67;;;22.30;86.10;;;;;;4964336;28;20420;-72
2022/06/01 08:54:50;;;;;;;1.83;1.73;;;22.40;86.90;;;;;;4964600;28;20421;-73
2022/06/01 08:57:30;;;;;;;2.47;1.90;;;22.60;88.00;;;;;;4964853;28;20447;-72
2022/06/01 09:00:14;;;;;;;2.57;2.00;;;22.60;87.30;;;;;;4964903;28;20205;-71
2022/06/01 09:02:46;;;;;;;2.33;2.10;;;22.70;86.90;;;;;;4967157;28;20460;-70
2022/06/01 09:05:18;;;;;;;2.00;1.90;;;23.10;85.10;;;;;;4968875;28;20419;-72
2022/06/01 09:08:28;;;;;;;7.60;2.70;;;23.10;85.40;;;;;;4967512;28;20409;-71
2022/06/01 09:11:07;;;;;;;6.23;2.00;;;22.70;88.60;;;;;;4940174;28;20969;-71
2022/06/01 09:14:07;;;;;;;2.73;2.30;;;22.50;90.10;;;;;;4968592;28;20495;-72
2022/06/01 09:16:41;;;;;;;2.60;2.07;;;22.20;90.30;;;;;;4968172;28;20420;-71
2022/06/01 09:19:16;;;;;;;2.80;2.37;;;22.20;89.90;;;;;;4968600;28;20498;-76
2022/06/01 09:24:31;;;;;;;2.60;2.40;;;21.80;89.00;;;;;;4969080;28;20961;-71
2022/06/01 09:27:02;;;;;;;4.83;2.13;;;21.70;88.20;;;;;;4968523;28;20455;-73
2022/06/01 09:29:32;;;;;;;4.07;2.23;;;21.60;89.40;;;;;;4968496;28;20519;-71
2022/06/01 09:32:05;;;;;;;3.97;2.00;;;21.80;88.90;;;;;;4967805;28;20452;-69
2022/06/01 09:34:42;;;;;;;4.57;2.23;;;22.00;88.70;;;;;;4967706;28;20940;-71
2022/06/01 09:37:07;;;;;;;3.27;2.00;;;22.40;89.40;;;;;;4968336;28;20446;-72
2022/06/01 09:39:35;;;;;;;3.10;2.33;;;22.40;86.50;;;;;;4967977;28;21031;-70
2022/06/01 09:42:25;;;;;;;1.90;1.70;;;22.40;85.50;;;;;;4967702;28;20582;-70
2022/06/01 09:44:52;;;;;;;2.40;2.20;;;22.60;86.10;;;;;;4968641;28;20483;-72
2022/06/01 09:47:27;;;;;;;4.20;2.30;;;;;;;;;;4967846;28;20996;-72
2022/06/01 09:49:55;;;;;;;3.30;2.20;;;;;;;;;;4967071;28;20550;-71
2022/06/01 09:52:31;;;;;;;3.57;2.10;;;;;;;;;;4967130;28;21008;-70
2022/06/01 09:54:58;;;;;;;3.00;2.00;;;;;;;;;;4967349;28;20440;-72
2022/06/01 09:57:33;;;;;;;3.10;1.87;;;;;;;;;;4966952;28;20400;-74
2022/06/01 10:08:20;;;;;;;6.03;2.23;;;;;;;;;;4967407;28;20393;-71
2022/06/01 10:10:58;;;;;;;1.50;1.40;;;;;;;;;;4966981;28;20433;-72
2022/06/01 10:13:35;;;;;;;1.40;1.30;;;;;;;;;;4965343;28;20412;-72
2022/06/01 10:16:12;;;;;;;1.70;1.60;;;;;;;;;;4966783;28;20908;-71
2022/06/01 10:18:40;;;;;;;1.70;1.50;;;;;;;;;;4966668;28;20400;-70
2022/06/01 10:21:14;;;;;;;1.50;1.30;;;;;;;;;;4966225;28;20471;-71
2022/06/01 10:23:58;;;;;;;1.80;1.37;;;;;;;;;;4966092;28;20413;-71
2022/06/01 10:26:30;;;;;;;2.03;1.47;;;;;;;;;;4966655;28;20841;-72
2022/06/01 10:28:59;;;;;;;2.50;1.40;;;;;;;;;;4966410;28;20405;-70
2022/06/01 10:31:32;;;;;;;2.63;1.30;;;;;;;;;;4966833;28;20417;-72
2022/06/01 10:34:04;;;;;;;2.70;1.70;;;;;;;;;;4966427;28;20481;-72
2022/06/01 10:36:36;;;;;;;5.60;1.33;;;;;;;;;;4966610;28;20405;-71
2022/06/01 10:39:05;;;;;;;2.33;1.10;;;;;;;;;;4966296;28;20910;-71
2022/06/01 10:41:45;;;;;;;2.03;1.30;;;;;;;;;;4966003;28;20459;-72
2022/06/01 10:44:16;;;;;;;1.83;1.20;;;;;;;;;;4966614;28;20409;-72
2022/06/01 10:46:51;;;;;;;2.33;1.10;;;;;;;;;;4966343;28;20409;-71
2022/06/01 10:49:26;;;;;;;2.30;1.23;;;;;;;;;;4966045;28;20451;-71
2022/06/01 10:52:01;;;;;;;1.50;1.30;;;;;;;;;;4966188;28;20444;-70
2022/06/01 10:54:39;;;;;;;4.27;1.63;;;;;;;;;;4965944;28;20423;-71
2022/06/01 10:57:08;;;;;;;2.97;1.53;;;;;;;;;;4965207;28;20821;-71
2022/06/01 10:59:34;;;;;;;3.60;1.70;;;;;;;;;;4965609;28;20428;-72
2022/06/01 11:02:09;;;;;;;2.70;1.60;;;;;;;;;;4965945;28;20456;-72
2022/06/01 11:04:44;;;;;;;1.50;1.40;;;;;;;;;;4966012;28;20459;-72
2022/06/01 11:07:29;;;;;;;2.57;1.60;;;;;;;;;;5023998;23;20490;-72
2022/06/01 11:10:07;;;;;;;1.20;1.10;;;;;;;;;;5009663;28;20638;-70
2022/06/01 11:12:53;;;;;;;3.10;1.40;;;;;;;;;;5014717;28;20413;-72
2022/06/01 11:15:28;;;;;;;2.03;1.50;;;;;;;;;;5014014;28;20824;-73
2022/06/01 11:17:57;;;;;;;3.73;1.60;;;;;;;;;;5017499;28;20410;-73
2022/06/01 11:20:32;;;;;;;1.80;1.10;;;;;;;;;;5020692;28;20398;-72
2022/06/01 11:23:17;;;;;;;2.57;1.30;;;;;;;;;;5008579;28;20477;-72
2022/06/01 11:25:52;;;;;;;1.43;1.13;;;;;;;;;;5012218;28;20434;-70
2022/06/01 11:28:27;;;;;;;2.60;2.03;;;;;;;;;;5015149;28;20398;-70
2022/06/01 11:30:59;;;;;;;1.40;1.30;;;;;;;;;;5008463;28;20409;-72
2022/06/01 11:33:32;;;;;;;2.27;1.57;;;;;;;;;;5018228;28;20422;-73
2022/06/01 11:35:58;;;;;;;1.50;1.40;;;;;;;;;;5023958;28;21463;-72
2022/06/01 11:38:36;;;;;;;3.53;1.60;;;;;;;;;;5019452;28;20503;-74
2022/06/01 11:41:04;;;;;;;4.70;1.90;;;;;;;;;;5017582;28;20453;-73
2022/06/01 11:44:02;;;;;;;1.97;1.80;;;;;;;;;;5021544;28;20414;-73
2022/06/01 11:46:34;;;;;;;2.80;1.83;;;;;;;;;;4968154;28;20446;-74
2022/06/01 11:49:20;;;;;;;1.87;1.73;;;;;;;;;;5023885;28;20433;-73
2022/06/01 11:51:48;;;;;;;1.90;1.50;;;;;;;;;;5004533;28;20458;-75
2022/06/01 11:54:30;;;;;;;1.90;1.30;;;28.90;49.40;;;;;;5018798;28;20411;-72
2022/06/01 11:57:02;;;;;;;1.60;1.00;;;29.00;47.70;;;;;;5019105;28;20438;-74
2022/06/01 11:59:28;;;;;;;2.03;1.30;;;31.10;45.90;;;;;;5013043;28;20414;-72
2022/06/01 12:02:40;;;;;;;1.40;1.30;;;31.60;42.70;;;;;;5006855;28;20501;-73
2022/06/01 12:05:11;;;;;;;2.80;1.17;;;30.50;43.20;;;;;;5012402;28;20164;-71
2022/06/01 12:07:45;;;;;;;1.70;1.27;;;30.80;42.70;;;;;;5009355;28;21135;-75
2022/06/01 12:10:28;;;;;;;2.40;1.37;;;31.50;42.70;;;;;;5012703;28;20433;-74
2022/06/01 12:13:21;;;;;;;3.40;1.40;;;32.30;40.90;;;;;;5013140;28;20459;-73
2022/06/01 12:16:22;;;;;;;1.87;1.30;;;33.50;40.10;;;;;;5019300;28;20447;-73
2022/06/01 12:19:09;;;;;;;1.87;1.30;;;33.50;38.40;;;;;;5011981;28;20417;-74
2022/06/01 12:22:00;;;;;;;1.73;1.53;;;32.30;39.90;;;;;;5010557;28;20514;-71
2022/06/01 12:30:11;;;;;;;7.47;3.90;;;29.30;43.60;;;;;;5006201;28;20454;-73
2022/06/01 12:32:59;;;;;;;6.60;4.60;;;29.30;44.90;;;;;;5006418;28;20407;-73
2022/06/01 12:35:31;;;;;;;5.20;3.33;;;30.40;43.20;;;;;;5014430;28;20957;-74
2022/06/01 12:38:09;;;;;;;2.20;1.50;;;30.70;43.90;;;;;;5012018;28;20406;-73
2022/06/01 12:40:36;;;;;;;1.73;1.40;;;29.30;44.20;;;;;;5010781;28;20424;-73
2022/06/01 12:43:03;;;;;;;2.40;1.40;;;28.90;45.40;;;;;;5023545;28;20449;-73
2022/06/01 12:45:42;;;;;;;3.53;1.70;;;28.00;46.20;;;;;;5019443;28;20414;-72
2022/06/01 12:48:19;;;;;;;1.70;1.47;;;27.70;46.60;;;;;;5023841;28;20411;-72
2022/06/01 12:51:07;;;;;;;1.93;1.40;;;27.00;47.90;;;;;;5016835;28;20778;-73
2022/06/01 12:53:51;;;;;;;2.47;1.53;;;26.70;48.30;;;;;;5011896;28;20472;-73
2022/06/01 12:56:26;;;;;;;2.97;1.77;;;26.60;49.40;;;;;;5018550;28;20429;-72
2022/06/01 12:58:53;;;;;;;2.47;1.50;;;26.50;49.60;;;;;;5008990;28;20424;-73
2022/06/01 13:01:20;;;;;;;2.30;1.90;;;26.40;49.90;;;;;;5006844;28;20456;-72
2022/06/01 13:03:49;;;;;;;2.80;1.80;;;26.60;50.50;;;;;;5020222;28;20421;-73
2022/06/01 13:06:22;;;;;;;3.10;2.20;;;26.60;50.70;;;;;;5017168;28;21478;-72
2022/06/01 13:09:09;;;;;;;4.57;1.80;;;26.30;50.80;;;;;;5006825;28;20409;-73
2022/06/01 13:11:35;;;;;;;1.77;1.40;;;26.00;51.00;;;;;;5020348;28;20761;-72
2022/06/01 13:14:05;;;;;;;2.23;1.43;;;25.90;51.40;;;;;;5014399;28;20433;-72
2022/06/01 13:16:37;;;;;;;2.43;1.50;;;26.30;51.90;;;;;;5016365;28;20434;-72
2022/06/01 13:19:26;;;;;;;2.40;1.77;;;26.80;50.70;;;;;;5014120;28;20458;-72
2022/06/01 13:22:15;;;;;;;3.20;1.50;;;27.80;49.20;;;;;;5026227;28;20449;-72
2022/06/01 13:24:45;;;;;;;3.30;1.87;;;28.70;48.10;;;;;;5026737;28;20533;-74
2022/06/01 13:27:11;;;;;;;2.20;1.67;;;28.20;49.10;;;;;;5026481;28;20449;-72
2022/06/01 13:29:47;;;;;;;6.43;3.80;;;27.60;49.90;;;;;;5011184;28;20505;-72
2022/06/01 13:32:16;;;;;;;3.40;1.87;;;26.60;52.40;;;;;;5015366;28;21077;-73
2022/06/01 13:34:47;;;;;;;4.10;1.90;;;25.80;54.10;;;;;;5017894;28;20505;-73
2022/06/01 13:37:22;;;;;;;3.57;2.30;;;25.30;55.20;;;;;;5006177;28;20442;-72
2022/06/01 13:40:03;;;;;;;2.83;2.33;;;24.90;55.80;;;;;;5019757;28;20457;-74
2022/06/01 13:42:46;;;;;;;5.17;2.23;;;24.70;56.60;;;;;;5023805;28;20441;-73
2022/06/01 13:45:16;;;;;;;3.20;2.20;;;24.70;56.60;;;;;;5025861;28;20493;-75
2022/06/01 13:47:51;;;;;;;2.60;1.90;;;24.80;57.20;;;;;;5026111;28;20834;-73
2022/06/01 13:50:18;;;;;;;2.37;1.83;;;26.70;54.60;;;;;;5018863;28;20411;-75
2022/06/01 13:52:47;;;;;;;2.70;2.20;;;28.60;52.00;;;;;;5017058;28;20421;-74
2022/06/01 13:55:30;;;;;;;5.43;2.20;;;29.60;50.00;;;;;;5017526;28;20422;-73
2022/06/01 13:58:07;;;;;;;1.87;1.67;;;29.80;48.60;;;;;;5018856;28;20907;-75
2022/06/01 14:00:34;;;;;;;1.87;1.70;;;29.10;50.30;;;;;;5010924;28;20425;-71